Time;durP1;ratioP1;P1;durP2;ratioP2;P2;SDS_P1;SDS_P2;PMS_P1;PMS_P2;Temp;Humidity;BMP_temperature;BMP_pressure;BME280_temperature;BME280_humidity;BME280_pressure;Samples;Min_cycle;Max_cycle;Signal;HPM_P1;HPM_P2
2023/02/01 00:00:55;;;;;;;27.21;24.62;;;;;;;0.29;59.23;100356.04;457386;114;922932;-71
2023/02/01 00:01:58;;;;;;;25.91;23.56;;;;;;;0.26;59.31;100359.89;455376;114;922607;-71
2023/02/01 00:03:01;;;;;;;25.32;22.94;;;;;;;0.27;59.48;100363.41;449649;118;922809;-69
2023/02/01 00:04:04;;;;;;;25.88;23.14;;;;;;;0.26;59.41;100364.41;460959;115;922855;-71
2023/02/01 00:05:08;;;;;;;25.12;22.66;;;;;;;0.23;59.21;100357.50;461675;115;922495;-70
2023/02/01 00:06:12;;;;;;;26.04;23.36;;;;;;;0.16;58.99;100361.81;461563;115;922604;-70
2023/02/01 00:07:15;;;;;;;25.61;23.20;;;;;;;0.10;58.96;100362.42;459912;114;922651;-72
2023/02/01 00:08:18;;;;;;;25.90;23.51;;;;;;;0.05;59.08;100358.52;461453;114;922508;-71
2023/02/01 00:09:21;;;;;;;26.59;24.00;;;;;;;0.02;59.24;100359.65;460987;115;922483;-71
2023/02/01 00:10:25;;;;;;;25.82;23.49;;;;;;;0.03;59.52;100353.30;461242;114;922459;-71
2023/02/01 00:11:28;;;;;;;27.73;24.97;;;;;;;0.05;59.64;100355.84;457382;114;922559;-70
2023/02/01 00:12:31;;;;;;;27.13;24.49;;;;;;;0.06;59.50;100350.30;457265;115;922880;-71
2023/02/01 00:13:37;;;;;;;27.51;24.86;;;;;;;0.06;59.57;100346.77;457405;116;923069;-69
2023/02/01 00:14:40;;;;;;;27.10;24.49;;;;;;;0.04;59.48;100352.31;457471;115;922575;-71
2023/02/01 00:15:43;;;;;;;28.29;24.90;;;;;;;0.01;59.42;100355.27;456379;114;922848;-72
2023/02/01 00:16:47;;;;;;;27.02;24.46;;;;;;;-0.04;59.20;100347.70;454285;114;923070;-72
2023/02/01 00:17:54;;;;;;;28.67;25.63;;;;;;;-0.07;59.25;100344.50;452064;115;922522;-72
2023/02/01 00:19:01;;;;;;;28.98;26.21;;;;;;;-0.09;59.36;100346.47;457200;115;922667;-71
2023/02/01 00:20:05;;;;;;;28.77;25.77;;;;;;;-0.11;59.55;100341.25;457130;116;922666;-71
2023/02/01 00:21:10;;;;;;;29.71;26.68;;;;;;;-0.11;59.72;100338.58;457133;115;923351;-71
2023/02/01 00:22:13;;;;;;;28.47;25.72;;;;;;;-0.07;60.01;100336.45;451926;114;922936;-72
2023/02/01 00:23:16;;;;;;;30.33;27.32;;;;;;;-0.03;60.07;100335.14;449550;116;923039;-71
2023/02/01 00:24:19;;;;;;;28.91;25.93;;;;;;;0.00;60.18;100326.81;456402;115;923011;-71
2023/02/01 00:25:22;;;;;;;29.64;26.71;;;;;;;0.05;60.37;100331.71;456275;115;922904;-71
2023/02/01 00:26:29;;;;;;;29.18;26.09;;;;;;;0.09;60.42;100325.04;461436;114;922589;-70
2023/02/01 00:27:32;;;;;;;29.44;26.38;;;;;;;0.12;60.40;100322.88;457137;114;922988;-72
2023/02/01 00:28:36;;;;;;;31.00;26.79;;;;;;;0.15;60.38;100325.27;457267;116;922473;-71
2023/02/01 00:29:39;;;;;;;30.60;27.46;;;;;;;0.18;60.29;100326.78;457399;115;922600;-70
2023/02/01 00:30:42;;;;;;;32.92;28.96;;;;;;;0.20;60.17;100328.33;457298;114;922392;-71
2023/02/01 00:31:45;;;;;;;32.46;29.16;;;;;;;0.20;60.04;100325.65;456291;114;922582;-71
2023/02/01 00:32:48;;;;;;;42.39;33.16;;;;;;;0.20;59.93;100325.65;450825;115;922564;-71
2023/02/01 00:33:51;;;;;;;49.14;37.03;;;;;;;0.19;59.94;100321.28;455763;116;930320;-71
2023/02/01 00:34:54;;;;;;;43.44;33.29;;;;;;;0.19;59.96;100313.23;456005;115;922931;-71
2023/02/01 00:35:59;;;;;;;37.48;30.94;;;;;;;0.20;60.16;100306.88;460141;115;922515;-72
2023/02/01 00:37:02;;;;;;;35.27;29.81;;;;;;;0.23;60.17;100316.44;453579;114;922671;-71
2023/02/01 00:38:05;;;;;;;37.52;30.76;;;;;;;0.23;60.14;100319.96;449601;118;930422;-70
2023/02/01 00:39:09;;;;;;;37.63;32.93;;;;;;;0.25;60.22;100322.50;457734;115;923218;-71
2023/02/01 00:40:13;;;;;;;38.19;32.18;;;;;;;0.27;60.12;100318.67;461598;114;922831;-70
2023/02/01 00:41:18;;;;;;;41.58;34.94;;;;;;;0.29;60.13;100323.86;457496;115;922598;-72
2023/02/01 00:42:21;;;;;;;48.48;35.34;;;;;;;0.29;60.05;100319.34;450387;114;922500;-71
2023/02/01 00:43:24;;;;;;;44.34;33.44;;;;;;;0.29;59.99;100326.55;449593;118;922515;-71
2023/02/01 00:44:27;;;;;;;41.35;32.86;;;;;;;0.28;59.79;100320.34;456997;115;922616;-71
2023/02/01 00:45:31;;;;;;;36.83;31.55;;;;;;;0.26;59.79;100325.03;455740;116;922528;-70
2023/02/01 00:46:34;;;;;;;44.35;33.85;;;;;;;0.26;59.79;100324.19;455634;116;922544;-71
2023/02/01 00:47:37;;;;;;;43.37;32.47;;;;;;;0.23;59.66;100328.00;453754;115;922719;-72
2023/02/01 00:48:40;;;;;;;34.99;31.34;;;;;;;0.23;59.77;100324.48;464209;114;922677;-71
2023/02/01 00:49:43;;;;;;;40.43;31.79;;;;;;;0.23;59.83;100328.00;462398;114;922560;-72
2023/02/01 00:50:46;;;;;;;35.73;31.69;;;;;;;0.23;59.79;100325.33;456854;114;930346;-71
2023/02/01 00:51:49;;;;;;;34.41;30.65;;;;;;;0.24;59.66;100318.97;454896;114;922695;-71
2023/02/01 00:52:52;;;;;;;36.42;31.27;;;;;;;0.25;59.72;100323.34;453918;115;922569;-70
2023/02/01 00:53:55;;;;;;;39.09;32.76;;;;;;;0.26;59.63;100313.46;455740;116;922479;-71
2023/02/01 00:54:58;;;;;;;39.19;34.19;;;;;;;0.25;59.42;100322.50;455081;114;922874;-70
2023/02/01 00:56:02;;;;;;;42.81;33.97;;;;;;;0.24;59.39;100316.29;447096;118;922580;-71
2023/02/01 00:57:05;;;;;;;45.96;36.35;;;;;;;0.24;59.43;100318.97;447904;114;922522;-72
2023/02/01 00:58:09;;;;;;;42.84;36.05;;;;;;;0.26;59.46;100325.03;447082;118;922471;-71
2023/02/01 00:59:12;;;;;;;39.92;34.85;;;;;;;0.25;59.35;100322.50;447003;118;922461;-71
2023/02/01 01:00:16;;;;;;;42.56;37.75;;;;;;;0.25;59.26;100320.66;446983;118;922518;-70
2023/02/01 01:01:23;;;;;;;47.76;38.91;;;;;;;0.25;59.29;100328.70;438869;120;930709;-71
2023/02/01 01:02:33;;;;;;;44.58;37.91;;;;;;;0.34;59.09;100322.40;477146;110;947087;-70
2023/02/01 01:03:39;;;;;;;46.30;38.91;;;;;;;0.20;58.93;100328.33;459912;114;922525;-71
2023/02/01 01:04:43;;;;;;;41.28;36.86;;;;;;;0.16;58.70;100329.64;457737;114;922929;-72
2023/02/01 01:05:47;;;;;;;42.86;37.54;;;;;;;0.14;58.79;100320.05;461713;114;922524;-71
2023/02/01 01:06:51;;;;;;;40.67;36.37;;;;;;;0.13;58.90;100311.17;466113;112;922559;-71
2023/02/01 01:07:54;;;;;;;45.90;36.98;;;;;;;0.13;58.93;100313.84;472176;112;922900;-71
2023/02/01 01:08:58;;;;;;;47.44;37.64;;;;;;;0.11;59.07;100310.47;472150;112;922510;-71
2023/02/01 01:10:01;;;;;;;48.22;38.80;;;;;;;0.12;59.00;100319.36;470417;112;922556;-69
2023/02/01 01:11:17;;;;;;;47.19;37.68;;;;;;;0.12;58.99;100312.16;469694;113;922475;-70
2023/02/01 01:12:20;;;;;;;46.95;38.58;;;;;;;0.11;58.97;100318.52;465700;112;922522;-70
2023/02/01 01:13:23;;;;;;;45.49;38.64;;;;;;;0.09;58.76;100323.20;463809;114;922449;-70
2023/02/01 01:14:26;;;;;;;41.19;36.58;;;;;;;0.06;58.59;100322.65;463731;114;922487;-72
2023/02/01 01:15:29;;;;;;;42.59;37.17;;;;;;;0.04;58.64;100324.66;463725;114;930201;-70
2023/02/01 01:16:33;;;;;;;42.39;35.52;;;;;;;0.01;58.50;100323.12;464357;112;922903;-70
2023/02/01 01:17:36;;;;;;;44.78;38.59;;;;;;;-0.03;58.52;100317.23;463851;112;922544;-71
2023/02/01 01:18:40;;;;;;;49.16;37.92;;;;;;;-0.04;58.55;100320.05;463842;114;922655;-71
2023/02/01 01:19:43;;;;;;;39.35;35.21;;;;;;;-0.05;58.73;100319.21;454026;117;922565;-70
2023/02/01 01:20:47;;;;;;;36.92;32.89;;;;;;;-0.05;58.70;100315.69;463729;112;922516;-70
2023/02/01 01:21:50;;;;;;;43.06;35.50;;;;;;;-0.05;58.82;100313.85;463988;112;922891;-71
2023/02/01 01:22:54;;;;;;;40.11;33.96;;;;;;;-0.04;58.87;100325.41;465351;112;922455;-70
2023/02/01 01:23:57;;;;;;;38.98;34.71;;;;;;;-0.04;58.68;100317.38;469271;112;922473;-71
2023/02/01 01:25:00;;;;;;;42.13;35.49;;;;;;;-0.05;58.65;100321.89;464186;112;922970;-70
2023/02/01 01:26:09;;;;;;;41.66;34.82;;;;;;;-0.08;58.53;100321.37;463831;112;922572;-71
2023/02/01 01:27:12;;;;;;;48.95;38.58;;;;;;;-0.13;58.49;100319.15;464151;112;922595;-72
2023/02/01 01:28:15;;;;;;;52.74;39.52;;;;;;;-0.16;58.34;100327.47;463805;114;922649;-71
2023/02/01 01:29:18;;;;;;;47.74;36.76;;;;;;;-0.20;58.40;100322.58;463851;114;922507;-70
2023/02/01 01:30:22;;;;;;;45.49;35.61;;;;;;;-0.25;58.32;100319.52;463883;114;922553;-70
2023/02/01 01:31:26;;;;;;;41.04;33.71;;;;;;;-0.28;58.48;100317.16;463781;114;922522;-72
2023/02/01 01:32:30;;;;;;;44.20;35.51;;;;;;;-0.31;58.46;100312.93;471673;112;922578;-71
2023/02/01 01:33:33;;;;;;;45.58;36.35;;;;;;;-0.32;58.50;100313.91;468067;112;922618;-70
2023/02/01 01:34:36;;;;;;;40.86;33.89;;;;;;;-0.31;58.82;100307.57;462770;114;922549;-72
2023/02/01 01:35:39;;;;;;;37.83;32.54;;;;;;;-0.30;59.03;100309.26;470426;112;922561;-72
2023/02/01 01:36:43;;;;;;;44.24;35.83;;;;;;;-0.27;59.12;100306.27;469053;112;923108;-71
2023/02/01 01:37:46;;;;;;;47.15;36.02;;;;;;;-0.24;59.39;100314.02;463753;112;930264;-70
2023/02/01 01:38:49;;;;;;;44.09;36.09;;;;;;;-0.19;59.55;100305.52;463875;114;922501;-70
2023/02/01 01:39:52;;;;;;;41.90;35.56;;;;;;;-0.15;59.52;100304.20;463777;114;922975;-71
2023/02/01 01:40:56;;;;;;;44.46;35.60;;;;;;;-0.11;59.64;100300.25;463742;114;930317;-70
2023/02/01 01:41:59;;;;;;;42.67;36.03;;;;;;;-0.07;59.62;100299.78;464189;112;922487;-70
2023/02/01 01:43:03;;;;;;;39.30;34.39;;;;;;;-0.04;59.48;100303.97;455121;116;922616;-70
2023/02/01 01:44:09;;;;;;;38.44;33.02;;;;;;;-0.01;59.50;100303.69;455571;114;922676;-71
2023/02/01 01:45:27;;;;;;;35.48;31.59;;;;;;;0.00;59.31;100308.06;466834;112;922620;-71
2023/02/01 01:46:34;;;;;;;32.81;29.42;;;;;;;0.02;59.40;100305.20;471556;112;922579;-70
2023/02/01 01:47:43;;;;;;;33.67;30.41;;;;;;;0.04;59.42;100301.38;463712;112;922535;-71
2023/02/01 01:48:49;;;;;;;35.29;31.34;;;;;;;0.04;59.39;100295.17;463601;114;922490;-71
2023/02/01 01:49:53;;;;;;;35.12;31.51;;;;;;;0.06;59.30;100303.89;463655;114;922484;-72
2023/02/01 01:51:02;;;;;;;36.06;31.69;;;;;;;0.08;59.30;100299.23;464130;112;922489;-72
2023/02/01 01:52:06;;;;;;;36.43;32.42;;;;;;;0.10;59.39;100294.56;464014;112;922976;-71
2023/02/01 01:53:13;;;;;;;36.11;32.41;;;;;;;0.11;59.39;100296.25;453764;117;922567;-71
2023/02/01 01:54:25;;;;;;;37.01;32.86;;;;;;;0.13;59.30;100296.92;463788;112;922875;-70
2023/02/01 01:55:32;;;;;;;39.89;33.82;;;;;;;0.16;59.32;100293.95;465855;112;922606;-71
2023/02/01 01:56:35;;;;;;;41.40;34.03;;;;;;;0.17;59.28;100299.13;463771;112;922949;-73
2023/02/01 01:57:42;;;;;;;45.96;33.40;;;;;;;0.19;59.41;100307.87;463052;112;922510;-70
2023/02/01 01:58:46;;;;;;;40.52;33.21;;;;;;;0.21;59.43;100303.20;463601;114;922502;-71
2023/02/01 01:59:53;;;;;;;41.43;33.96;;;;;;;0.23;59.39;100301.19;470886;112;922527;-72
2023/02/01 02:00:56;;;;;;;41.18;34.93;;;;;;;0.23;59.36;100295.83;470225;112;930387;-71
2023/02/01 02:01:59;;;;;;;37.41;33.36;;;;;;;0.26;59.40;100298.22;464081;112;922814;-72
2023/02/01 02:03:19;;;;;;;39.23;33.26;;;;;;;0.28;59.38;100288.16;463749;114;922691;-72
2023/02/01 02:04:23;;;;;;;37.67;32.61;;;;;;;0.29;59.28;100287.17;464436;112;922581;-72
2023/02/01 02:05:28;;;;;;;34.16;29.39;;;;;;;0.31;59.37;100293.23;463718;114;922545;-72
2023/02/01 02:06:45;;;;;;;31.89;28.89;;;;;;;0.33;59.24;100293.08;467216;112;922486;-72
2023/02/01 02:07:50;;;;;;;31.56;28.22;;;;;;;0.34;59.31;100294.73;464466;112;922453;-71
2023/02/01 02:08:54;;;;;;;30.13;27.28;;;;;;;0.33;59.19;100285.84;463661;114;922572;-71
2023/02/01 02:09:57;;;;;;;31.79;28.64;;;;;;;0.33;59.16;100280.48;463830;114;922832;-72
2023/02/01 02:11:03;;;;;;;42.33;33.49;;;;;;;0.33;59.10;100283.17;463602;113;922493;-71
2023/02/01 02:12:06;;;;;;;34.80;30.11;;;;;;;0.33;59.11;100274.31;464201;112;922569;-71
2023/02/01 02:13:10;;;;;;;35.19;31.34;;;;;;;0.34;59.04;100275.97;463777;114;922456;-71
2023/02/01 02:14:16;;;;;;;45.60;35.32;;;;;;;0.33;58.89;100280.48;463768;112;922520;-71
2023/02/01 02:15:19;;;;;;;35.86;31.49;;;;;;;0.29;58.74;100270.23;463486;114;922422;-70
2023/02/01 02:16:47;;;;;;;39.29;35.14;;;;;;;0.25;58.52;100280.44;463598;114;922485;-72
2023/02/01 02:18:00;;;;;;;37.96;33.78;;;;;;;0.23;58.52;100278.91;463542;114;922742;-72
2023/02/01 02:19:29;;;;;;;34.47;31.17;;;;;;;0.16;58.43;100286.75;463891;112;922612;-71
2023/02/01 02:20:42;;;;;;;37.63;33.84;;;;;;;0.12;58.59;100284.51;453623;117;923158;-71
2023/02/01 02:22:05;;;;;;;35.21;31.57;;;;;;;0.08;58.58;100294.71;464781;112;922566;-71
2023/02/01 02:23:45;;;;;;;36.17;32.31;;;;;;;0.05;58.58;100292.35;465284;112;922581;-72
2023/02/01 02:25:12;;;;;;;35.78;32.03;;;;;;;0.02;58.55;100287.28;471849;112;922540;-72
2023/02/01 02:26:43;;;;;;;36.32;32.61;;;;;;;-0.04;58.62;100290.58;463484;114;922520;-73
2023/02/01 02:27:59;;;;;;;36.09;32.39;;;;;;;-0.07;58.72;100290.90;449644;114;922927;-71
2023/02/01 02:29:29;;;;;;;36.85;33.22;;;;;;;-0.10;58.75;100294.72;453435;112;922773;-71
2023/02/01 02:30:45;;;;;;;34.94;31.42;;;;;;;-0.14;58.81;100289.82;465006;112;922498;-71
2023/02/01 02:31:59;;;;;;;37.52;33.42;;;;;;;-0.21;58.65;100294.09;463882;112;922530;-72
2023/02/01 02:33:38;;;;;;;36.47;32.82;;;;;;;-0.28;58.64;100291.21;463414;114;922598;-72
2023/02/01 02:34:49;;;;;;;35.34;31.90;;;;;;;-0.31;58.90;100291.50;463539;112;923041;-71
2023/02/01 02:36:05;;;;;;;36.13;32.48;;;;;;;-0.36;58.89;100287.59;463285;114;922592;-71
2023/02/01 02:37:32;;;;;;;37.71;34.06;;;;;;;-0.42;58.81;100284.53;466511;112;922521;-71
2023/02/01 02:38:42;;;;;;;36.64;33.14;;;;;;;-0.48;58.77;100295.84;466012;114;922921;-71
2023/02/01 02:39:55;;;;;;;37.06;33.43;;;;;;;-0.54;58.84;100293.77;464567;113;922679;-71
2023/02/01 02:47:52;;;;;;;38.54;34.74;;;;;;;-0.70;59.43;100288.23;468429;112;922540;-69
2023/02/01 02:49:15;;;;;;;37.42;34.04;;;;;;;-0.72;59.53;100281.36;471516;112;922495;-72
2023/02/01 02:55:04;;;;;;;40.46;35.34;;;;;;;-0.69;60.41;100281.05;463572;112;922548;-70
2023/02/01 03:04:37;;;;;;;35.78;32.64;;;;;;;-0.56;60.64;100284.22;462167;113;922575;-71
2023/02/01 03:05:44;;;;;;;36.85;33.41;;;;;;;-0.55;60.79;100288.59;460868;113;922545;-71
2023/02/01 03:06:47;;;;;;;35.79;32.83;;;;;;;-0.56;60.78;100287.73;463588;114;922785;-71
2023/02/01 03:07:57;;;;;;;35.74;32.63;;;;;;;-0.55;60.70;100296.62;463068;114;922585;-71
2023/02/01 03:09:04;;;;;;;36.97;33.53;;;;;;;-0.55;60.74;100292.08;463230;113;922494;-71
2023/02/01 03:10:11;;;;;;;37.14;33.54;;;;;;;-0.52;60.83;100297.14;457276;114;930410;-71
2023/02/01 03:11:15;;;;;;;37.59;34.27;;;;;;;-0.52;60.81;100294.47;460210;113;922559;-70
2023/02/01 03:13:59;;;;;;;35.67;32.33;;;;;;;-0.51;60.79;100301.52;458329;113;922568;-71
2023/02/01 03:15:08;;;;;;;35.81;32.48;;;;;;;-0.52;60.65;100291.79;459047;113;923083;-71
2023/02/01 03:16:30;;;;;;;35.88;32.51;;;;;;;-0.54;60.74;100291.09;467940;113;922501;-71
2023/02/01 03:17:37;;;;;;;37.41;33.94;;;;;;;-0.53;60.89;100291.93;446808;116;922458;-69
2023/02/01 03:19:00;;;;;;;37.17;33.66;;;;;;;-0.51;61.06;100288.13;453801;117;922583;-71
2023/02/01 03:20:05;;;;;;;34.88;31.90;;;;;;;-0.47;61.12;100283.30;450307;117;922544;-70
2023/02/01 03:21:12;;;;;;;35.78;32.79;;;;;;;-0.43;61.19;100281.99;440863;117;922876;-69
2023/02/01 03:22:19;;;;;;;38.19;34.46;;;;;;;-0.40;61.30;100281.70;449999;117;922648;-70
2023/02/01 03:23:25;;;;;;;37.96;34.36;;;;;;;-0.35;61.48;100276.73;450877;117;923150;-71
2023/02/01 03:24:38;;;;;;;38.52;34.84;;;;;;;-0.29;61.63;100280.64;446520;116;922514;-70
2023/02/01 03:25:42;;;;;;;37.04;33.52;;;;;;;-0.23;61.68;100280.03;448889;118;922494;-71
2023/02/01 03:26:54;;;;;;;38.79;35.27;;;;;;;-0.18;61.76;100286.61;458305;115;922368;-72
2023/02/01 03:28:06;;;;;;;36.64;33.16;;;;;;;-0.14;61.72;100285.30;451704;115;922531;-68
2023/02/01 03:29:13;;;;;;;36.90;33.56;;;;;;;-0.10;61.51;100293.87;448571;116;922605;-71
2023/02/01 03:30:21;;;;;;;38.82;34.89;;;;;;;-0.10;61.33;100289.35;446215;119;923121;-71
2023/02/01 03:31:27;;;;;;;37.59;34.00;;;;;;;-0.13;61.31;100283.47;450012;116;922583;-71
2023/02/01 03:32:57;;;;;;;37.27;33.85;;;;;;;-0.12;61.31;100282.48;451974;116;922609;-71
2023/02/01 03:33:35;;;;;;;38.22;34.37;;;;;;;-0.11;61.25;100287.66;452675;116;922469;-71
2023/02/01 03:34:39;;;;;;;36.33;33.01;;;;;;;-0.12;61.17;100282.48;457665;116;923002;-70
2023/02/01 03:35:48;;;;;;;37.33;33.73;;;;;;;-0.14;61.01;100289.82;457259;116;922464;-70
2023/02/01 03:37:01;;;;;;;34.91;31.54;;;;;;;-0.15;61.13;100285.45;455957;116;922963;-71
2023/02/01 03:38:08;;;;;;;35.78;32.67;;;;;;;-0.15;61.10;100280.94;451807;116;922832;-72
2023/02/01 03:39:31;;;;;;;34.54;31.39;;;;;;;-0.14;61.32;100281.78;450542;116;922636;-71
2023/02/01 03:40:37;;;;;;;34.00;30.97;;;;;;;-0.12;61.48;100282.48;449795;118;923085;-70
2023/02/01 03:41:52;;;;;;;35.39;32.23;;;;;;;-0.08;61.65;100282.02;446790;117;923011;-71
2023/02/01 03:43:17;;;;;;;32.55;29.93;;;;;;;-0.04;61.69;100282.53;445924;117;922491;-70
2023/02/01 03:44:40;;;;;;;34.18;30.97;;;;;;;0.02;61.81;100279.24;446215;119;922567;-70
2023/02/01 03:45:49;;;;;;;33.56;30.76;;;;;;;0.06;61.91;100294.01;453332;117;922530;-71
2023/02/01 03:47:09;;;;;;;35.04;31.67;;;;;;;0.11;61.86;100288.21;451330;117;922609;-71
2023/02/01 03:48:22;;;;;;;34.82;31.64;;;;;;;0.27;62.00;100281.14;482536;110;946847;-70
2023/02/01 03:49:32;;;;;;;36.48;33.06;;;;;;;0.20;61.95;100289.95;468172;112;922477;-71
2023/02/01 03:50:39;;;;;;;36.52;33.06;;;;;;;0.22;61.79;100283.42;461394;112;922904;-71
2023/02/01 03:51:42;;;;;;;34.74;31.64;;;;;;;0.24;61.66;100286.80;457466;115;922696;-71
2023/02/01 03:52:49;;;;;;;33.59;30.61;;;;;;;0.27;61.45;100289.19;461347;113;922628;-70
2023/02/01 03:53:55;;;;;;;35.36;32.17;;;;;;;0.26;61.41;100287.49;464993;113;922454;-72
2023/02/01 03:54:59;;;;;;;34.14;31.08;;;;;;;0.27;61.24;100288.34;468078;113;922367;-72
2023/02/01 03:56:03;;;;;;;34.44;31.37;;;;;;;0.25;61.12;100287.64;463194;114;922833;-72
2023/02/01 03:57:16;;;;;;;33.03;30.06;;;;;;;0.23;60.96;100292.30;466562;113;922568;-71
2023/02/01 03:58:21;;;;;;;34.62;31.56;;;;;;;0.20;60.76;100293.48;467133;113;922336;-70
2023/02/01 03:59:25;;;;;;;31.34;28.64;;;;;;;0.15;60.75;100289.58;464639;114;922518;-71
2023/02/01 04:00:28;;;;;;;34.44;31.42;;;;;;;0.13;60.72;100299.60;464515;113;922920;-71
2023/02/01 04:01:31;;;;;;;33.04;30.26;;;;;;;0.11;60.78;100299.75;464498;114;922486;-71
2023/02/01 04:02:35;;;;;;;33.41;30.43;;;;;;;0.09;60.63;100298.23;462778;113;922972;-72
2023/02/01 04:03:38;;;;;;;33.42;30.36;;;;;;;0.07;60.70;100309.10;459845;113;922528;-71
2023/02/01 04:04:41;;;;;;;32.31;29.36;;;;;;;0.06;60.71;100317.28;461782;113;922549;-71
2023/02/01 04:05:44;;;;;;;34.33;30.96;;;;;;;0.04;60.65;100305.90;458838;113;922505;-72
2023/02/01 04:06:48;;;;;;;34.07;31.02;;;;;;;0.03;60.79;100310.41;457613;116;922465;-72
2023/02/01 04:07:51;;;;;;;33.14;30.25;;;;;;;0.04;60.75;100305.90;464009;113;922651;-71
2023/02/01 04:08:54;;;;;;;34.44;31.39;;;;;;;0.05;60.98;100304.91;460017;115;922520;-70
2023/02/01 04:09:57;;;;;;;36.20;32.48;;;;;;;0.07;61.21;100306.42;463097;114;922903;-72
2023/02/01 04:11:00;;;;;;;37.97;34.27;;;;;;;0.12;61.32;100297.91;464403;114;922456;-71
2023/02/01 04:12:04;;;;;;;40.78;36.63;;;;;;;0.16;61.41;100301.99;464218;113;922912;-71
2023/02/01 04:13:07;;;;;;;39.23;35.16;;;;;;;0.22;61.60;100306.73;468160;113;922949;-71
2023/02/01 04:14:10;;;;;;;40.81;36.45;;;;;;;0.25;61.59;100307.25;465689;113;922916;-71
2023/02/01 04:15:13;;;;;;;46.68;39.96;;;;;;;0.31;61.62;100305.80;464379;114;923589;-71
2023/02/01 04:16:16;;;;;;;47.31;41.21;;;;;;;0.34;61.63;100297.42;464814;113;922736;-72
2023/02/01 04:17:19;;;;;;;46.96;39.35;;;;;;;0.38;61.78;100299.66;463465;113;922466;-72
2023/02/01 04:18:22;;;;;;;43.14;38.33;;;;;;;0.43;61.70;100301.02;446434;117;922517;-71
2023/02/01 04:19:25;;;;;;;39.29;35.28;;;;;;;0.46;61.69;100298.86;452320;116;922597;-71
2023/02/01 04:20:29;;;;;;;39.50;35.39;;;;;;;0.50;61.62;100304.77;464447;113;922634;-71
2023/02/01 04:21:32;;;;;;;38.05;34.23;;;;;;;0.51;61.40;100311.79;460665;113;922415;-71
2023/02/01 04:22:35;;;;;;;35.77;32.24;;;;;;;0.52;61.40;100310.80;462222;113;922602;-70
2023/02/01 04:23:38;;;;;;;35.83;32.29;;;;;;;0.53;61.22;100304.44;460914;115;922521;-71
2023/02/01 04:24:41;;;;;;;38.86;34.79;;;;;;;0.54;61.14;100317.70;460529;113;922559;-71
2023/02/01 04:25:44;;;;;;;40.71;34.18;;;;;;;0.54;61.01;100317.70;466604;113;922477;-70
2023/02/01 04:26:47;;;;;;;37.94;33.53;;;;;;;0.52;60.67;100317.01;468071;113;922455;-70
2023/02/01 04:27:51;;;;;;;36.57;31.66;;;;;;;0.50;60.61;100312.81;466817;113;922811;-71
2023/02/01 04:28:54;;;;;;;36.86;32.82;;;;;;;0.48;60.41;100312.97;468153;113;922923;-71
2023/02/01 04:29:57;;;;;;;37.01;33.33;;;;;;;0.45;60.41;100315.94;466898;113;922532;-69
2023/02/01 04:31:01;;;;;;;38.00;33.91;;;;;;;0.44;60.33;100310.76;459487;114;922580;-70
2023/02/01 04:32:04;;;;;;;38.51;33.69;;;;;;;0.43;60.09;100311.75;458168;113;922526;-71
2023/02/01 04:33:07;;;;;;;36.93;32.96;;;;;;;0.40;60.04;100305.69;468038;113;922587;-71
2023/02/01 04:34:11;;;;;;;36.83;32.63;;;;;;;0.38;59.97;100318.43;460328;114;922554;-71
2023/02/01 04:35:14;;;;;;;36.71;32.88;;;;;;;0.35;59.87;100313.36;464666;114;930506;-71
2023/02/01 04:36:19;;;;;;;38.00;33.99;;;;;;;0.33;59.79;100320.70;465906;114;922925;-71
2023/02/01 04:37:22;;;;;;;43.18;34.98;;;;;;;0.30;59.80;100323.72;466043;113;922514;-71
2023/02/01 04:38:25;;;;;;;40.76;33.73;;;;;;;0.27;59.65;100321.36;468193;113;922527;-70
2023/02/01 04:39:28;;;;;;;41.54;34.71;;;;;;;0.24;59.66;100316.29;465699;113;922963;-70
2023/02/01 04:40:31;;;;;;;39.68;34.61;;;;;;;0.23;59.55;100321.80;468152;113;922670;-70
2023/02/01 04:41:34;;;;;;;35.52;31.90;;;;;;;0.21;59.72;100321.13;458208;113;922512;-70
2023/02/01 04:42:37;;;;;;;34.87;31.27;;;;;;;0.22;60.09;100318.27;453413;116;922500;-70
2023/02/01 04:43:40;;;;;;;36.56;32.26;;;;;;;0.25;60.21;100312.62;468171;113;922492;-73
2023/02/01 04:44:43;;;;;;;38.57;33.22;;;;;;;0.29;60.44;100319.34;460039;115;923154;-71
2023/02/01 04:45:48;;;;;;;35.92;32.08;;;;;;;0.33;60.52;100319.89;459980;115;922503;-71
2023/02/01 04:46:51;;;;;;;36.88;32.53;;;;;;;0.37;60.59;100315.90;462291;114;922404;-71
2023/02/01 04:47:54;;;;;;;36.88;32.96;;;;;;;0.40;60.53;100313.73;467095;113;923272;-71
2023/02/01 04:48:57;;;;;;;38.42;34.12;;;;;;;0.44;60.66;100313.44;465332;114;922575;-71
2023/02/01 04:50:01;;;;;;;40.34;33.60;;;;;;;0.47;60.58;100315.80;465283;114;922865;-71
2023/02/01 04:51:04;;;;;;;41.44;34.84;;;;;;;0.50;60.61;100312.81;465260;114;922969;-69
2023/02/01 04:52:07;;;;;;;40.79;34.84;;;;;;;0.53;60.58;100315.17;464811;113;922409;-71
2023/02/01 04:53:10;;;;;;;43.91;35.82;;;;;;;0.56;60.64;100320.20;468069;113;922519;-72
2023/02/01 04:54:13;;;;;;;43.91;34.86;;;;;;;0.59;60.58;100317.23;468139;113;930677;-71
2023/02/01 04:55:16;;;;;;;41.28;36.34;;;;;;;0.61;60.62;100310.69;467713;113;922497;-71
2023/02/01 04:56:20;;;;;;;38.58;34.45;;;;;;;0.64;60.57;100312.23;466745;113;922507;-71
2023/02/01 04:57:23;;;;;;;37.99;33.13;;;;;;;0.65;60.55;100303.19;466640;113;922536;-72
2023/02/01 04:58:26;;;;;;;35.35;31.73;;;;;;;0.66;60.46;100300.32;468033;113;922711;-70
2023/02/01 04:59:29;;;;;;;32.98;29.71;;;;;;;0.70;60.39;100306.23;467841;113;922752;-72
2023/02/01 05:00:32;;;;;;;32.39;28.99;;;;;;;0.70;60.45;100300.88;467982;113;922843;-72
2023/02/01 05:01:35;;;;;;;31.58;28.52;;;;;;;0.70;60.32;100303.55;467988;113;922551;-71
2023/02/01 05:02:38;;;;;;;31.99;28.39;;;;;;;0.71;60.37;100303.41;467185;113;922517;-70
2023/02/01 05:03:41;;;;;;;32.46;29.16;;;;;;;0.71;60.16;100307.92;467997;113;922465;-70
2023/02/01 05:04:44;;;;;;;30.62;27.71;;;;;;;0.70;60.05;100316.97;468036;113;922532;-71
2023/02/01 05:05:48;;;;;;;30.52;27.76;;;;;;;0.68;60.02;100302.86;468001;113;922464;-71
2023/02/01 05:06:52;;;;;;;29.92;27.09;;;;;;;0.68;59.91;100309.06;462699;113;922586;-71
2023/02/01 05:07:55;;;;;;;31.76;28.86;;;;;;;0.66;59.85;100307.56;458342;113;923878;-71
2023/02/01 05:08:58;;;;;;;34.06;28.98;;;;;;;0.65;59.72;100308.55;464232;113;922554;-71
2023/02/01 05:10:01;;;;;;;29.13;26.59;;;;;;;0.64;59.76;100315.76;468096;113;922548;-71
2023/02/01 05:11:05;;;;;;;28.12;25.31;;;;;;;0.64;59.78;100304.18;460454;113;922622;-71
2023/02/01 05:13:49;;;;;;;27.91;25.13;;;;;;;0.64;59.64;100312.23;467800;113;930155;-72
2023/02/01 05:14:52;;;;;;;26.64;23.91;;;;;;;0.61;59.47;100313.38;461646;114;922514;-71
2023/02/01 05:15:55;;;;;;;24.87;22.83;;;;;;;0.58;59.59;100300.29;464553;114;922503;-71
2023/02/01 05:16:58;;;;;;;26.34;24.11;;;;;;;0.56;59.48;100302.27;464393;113;922500;-71
2023/02/01 05:18:01;;;;;;;27.49;25.03;;;;;;;0.56;59.44;100307.64;467721;113;922838;-72
2023/02/01 05:19:04;;;;;;;35.53;30.52;;;;;;;0.55;59.32;100310.50;460736;113;922500;-70
2023/02/01 05:20:09;;;;;;;45.16;32.19;;;;;;;0.54;59.34;100306.13;459907;115;922561;-71
2023/02/01 05:21:12;;;;;;;44.51;33.79;;;;;;;0.53;59.39;100305.28;464136;114;922377;-70
2023/02/01 05:22:15;;;;;;;53.12;36.11;;;;;;;0.54;59.41;100306.13;464793;113;922505;-72
2023/02/01 05:23:18;;;;;;;48.86;35.71;;;;;;;0.54;59.46;100309.66;467423;113;922600;-71